Terminal Aerodrome Forecast
Issued by NWS

Home | Current Version | Previous Version | Graphics & Text | Print | Product List | Glossary On
Versions: 1 2 3 4 5 6 7 8 9 10 11 12 13 14 15 16
000
FTUS43 KMPX 250520
TAFRWF
TAF
KRWF 250520Z 2506/2606 30008KT P6SM BKN060 BKN110
     FM251000 33009KT P6SM BKN008 OVC012
     FM251500 35009KT P6SM SCT008 OVC012
     FM251800 36008KT P6SM -SHRA OVC020
     FM252200 35009KT 1 1/2SM -SHRA BR OVC010
     FM260000 34012G22KT 1 1/2SM -RA BR OVC008=

USA.gov is the U.S. government's official web portal to all federal, state and local government web resources and services.